Time;durP1;ratioP1;P1;durP2;ratioP2;P2;SDS_P1;SDS_P2;PMS_P1;PMS_P2;Temp;Humidity;BMP_temperature;BMP_pressure;BME280_temperature;BME280_humidity;BME280_pressure;Samples;Min_cycle;Max_cycle;Signal;HPM_P1;HPM_P2
2024/03/19 00:00:44;;;;;;;24.20;15.80;;;;;;;0.52;77.70;96840.88;108755;1272;22533;-71
2024/03/19 00:03:34;;;;;;;21.50;14.40;;;;;;;0.40;78.31;96841.14;108712;1274;22531;-71
2024/03/19 00:06:06;;;;;;;23.40;16.30;;;;;;;0.29;78.56;96842.80;108774;1271;22526;-72
2024/03/19 00:08:37;;;;;;;28.20;16.40;;;;;;;0.20;79.31;96842.20;108772;1274;22544;-72
2024/03/19 00:11:11;;;;;;;20.90;14.80;;;;;;;0.14;79.65;96845.54;108734;1274;22525;-72
2024/03/19 00:13:42;;;;;;;20.90;15.30;;;;;;;0.07;79.87;96845.52;108770;1274;22536;-71
2024/03/19 00:16:12;;;;;;;23.20;15.40;;;;;;;0.08;80.21;96846.25;108790;1257;24314;-72
2024/03/19 00:18:43;;;;;;;21.60;15.60;;;;;;;0.12;80.39;96842.41;108751;1274;22562;-71
2024/03/19 00:21:14;;;;;;;23.60;16.40;;;;;;;0.09;80.53;96843.52;108802;1267;25324;-71
2024/03/19 00:23:44;;;;;;;24.70;16.50;;;;;;;0.03;80.68;96840.14;108734;1274;22634;-71
2024/03/19 00:26:16;;;;;;;24.10;16.70;;;;;;;-0.03;80.83;96840.73;108737;1274;25217;-72
2024/03/19 00:28:47;;;;;;;25.00;17.70;;;;;;;-0.06;81.36;96843.68;108759;1275;22549;-71
2024/03/19 00:31:17;;;;;;;21.90;15.20;;;;;;;-0.04;81.44;96839.21;108722;1266;25265;-71
2024/03/19 00:33:48;;;;;;;21.50;14.60;;;;;;;-0.06;81.63;96843.16;108625;1275;25447;-71
2024/03/19 00:36:20;;;;;;;23.10;16.50;;;;;;;-0.05;82.13;96840.51;108681;1269;25347;-72
2024/03/19 00:38:51;;;;;;;23.80;16.70;;;;;;;-0.01;82.20;96843.35;108644;1274;22535;-71
2024/03/19 00:41:21;;;;;;;25.70;17.00;;;;;;;0.04;82.38;96838.89;108662;1266;22522;-72
2024/03/19 00:43:52;;;;;;;27.50;17.60;;;;;;;0.10;82.66;96840.77;108725;1268;22534;-72
2024/03/19 00:46:23;;;;;;;22.80;16.10;;;;;;;0.12;82.82;96837.80;108742;1275;22529;-71
2024/03/19 00:48:54;;;;;;;19.80;14.80;;;;;;;0.13;82.62;96835.67;108780;1267;25377;-71
2024/03/19 00:51:24;;;;;;;23.90;16.30;;;;;;;0.14;82.94;96838.44;108766;1274;22539;-72
2024/03/19 00:53:55;;;;;;;27.80;17.10;;;;;;;0.18;83.08;96837.42;108758;1254;25426;-71
2024/03/19 00:56:26;;;;;;;27.70;19.20;;;;;;;0.17;83.00;96837.08;108743;1274;22537;-71
2024/03/19 00:58:56;;;;;;;29.00;18.80;;;;;;;0.14;83.17;96837.04;108802;1266;22554;-72
2024/03/19 01:01:27;;;;;;;26.50;17.90;;;;;;;0.15;83.19;96834.52;108684;1274;22522;-72
2024/03/19 01:03:58;;;;;;;23.60;17.80;;;;;;;0.12;83.08;96837.66;108761;1274;23832;-72
2024/03/19 01:06:29;;;;;;;27.30;17.30;;;;;;;0.04;83.44;96841.62;108762;1274;22535;-72
2024/03/19 01:08:59;;;;;;;29.70;18.60;;;;;;;0.06;83.81;96840.64;108810;1267;22612;-72
2024/03/19 01:11:29;;;;;;;29.90;20.70;;;;;;;0.15;83.91;96835.88;108743;1267;22546;-72
2024/03/19 01:14:00;;;;;;;27.40;18.10;;;;;;;0.20;83.79;96838.14;108776;1274;22530;-72
2024/03/19 01:16:30;;;;;;;25.90;18.10;;;;;;;0.22;83.97;96836.28;108741;1266;23041;-72
2024/03/19 01:19:01;;;;;;;22.00;16.80;;;;;;;0.26;84.21;96836.05;108791;1274;22520;-72
2024/03/19 01:21:31;;;;;;;25.00;16.80;;;;;;;0.31;84.29;96836.46;108757;1268;22549;-72
2024/03/19 01:24:02;;;;;;;20.90;15.20;;;;;;;0.32;83.90;96835.97;108815;1274;22692;-72
2024/03/19 01:26:32;;;;;;;20.30;15.80;;;;;;;0.32;84.07;96833.88;108800;1274;24245;-72
2024/03/19 01:29:02;;;;;;;18.90;13.80;;;;;;;0.31;83.91;96836.30;108770;1274;22572;-72
2024/03/19 01:31:33;;;;;;;20.40;15.00;;;;;;;0.31;83.92;96836.86;108791;1274;22534;-72
2024/03/19 01:34:09;;;;;;;21.10;15.00;;;;;;;0.30;83.68;96835.10;108799;1270;22524;-72
2024/03/19 01:36:42;;;;;;;25.70;17.60;;;;;;;0.28;84.06;96838.42;108780;1274;22529;-72
2024/03/19 01:39:13;;;;;;;26.80;19.30;;;;;;;0.33;84.39;96838.61;108770;1274;22582;-72
2024/03/19 01:41:46;;;;;;;27.10;19.20;;;;;;;0.35;84.66;96837.31;108736;1274;25364;-72
2024/03/19 01:44:17;;;;;;;26.80;18.40;;;;;;;0.34;84.46;96833.63;108665;1270;22522;-72
2024/03/19 01:46:48;;;;;;;25.70;18.10;;;;;;;0.33;84.32;96835.77;108652;1267;25422;-72
2024/03/19 01:49:19;;;;;;;21.10;15.50;;;;;;;0.34;84.70;96838.52;108647;1274;22521;-72
2024/03/19 01:51:53;;;;;;;18.70;14.60;;;;;;;0.37;84.50;96838.27;108645;1269;24856;-72
2024/03/19 01:54:24;;;;;;;22.00;16.10;;;;;;;0.40;84.85;96838.69;108653;1274;22522;-72
2024/03/19 01:56:55;;;;;;;20.70;15.40;;;;;;;0.43;84.49;96837.11;108656;1267;26426;-72
2024/03/19 01:59:26;;;;;;;21.50;15.50;;;;;;;0.46;84.50;96838.48;108631;1270;22513;-72
2024/03/19 02:01:56;;;;;;;20.90;15.50;;;;;;;0.48;84.84;96836.93;108625;1274;22626;-72
2024/03/19 02:04:28;;;;;;;21.20;15.30;;;;;;;0.48;84.69;96832.44;108631;1274;22522;-72
2024/03/19 02:06:59;;;;;;;19.60;14.40;;;;;;;0.46;84.31;96832.50;108651;1270;23876;-72
2024/03/19 02:09:29;;;;;;;20.10;15.30;;;;;;;0.43;84.23;96832.02;108653;1274;24598;-72
2024/03/19 02:12:03;;;;;;;22.20;16.80;;;;;;;0.42;84.43;96838.40;108678;1274;22556;-72
2024/03/19 02:14:34;;;;;;;21.20;15.50;;;;;;;0.47;84.57;96832.25;108654;1274;22936;-72
2024/03/19 02:17:05;;;;;;;22.20;16.90;;;;;;;0.51;84.76;96835.27;108703;1274;25345;-72
2024/03/19 02:19:38;;;;;;;21.10;15.60;;;;;;;0.52;84.37;96834.09;108695;1274;22534;-72
2024/03/19 02:22:11;;;;;;;23.20;15.80;;;;;;;0.53;84.65;96835.02;108657;1274;22526;-72
2024/03/19 02:24:43;;;;;;;21.90;16.60;;;;;;;0.53;84.54;96838.66;108661;1270;22546;-72
2024/03/19 02:27:14;;;;;;;19.60;14.80;;;;;;;0.53;84.53;96840.42;108639;1274;23295;-72
2024/03/19 02:29:45;;;;;;;20.80;15.10;;;;;;;0.55;84.54;96840.34;108647;1274;22526;-72
2024/03/19 02:32:18;;;;;;;21.50;16.60;;;;;;;0.57;84.62;96839.30;108628;1274;22631;-72
2024/03/19 02:34:48;;;;;;;24.80;16.30;;;;;;;0.58;84.74;96838.48;108666;1274;22536;-72
2024/03/19 02:37:19;;;;;;;22.30;16.40;;;;;;;0.59;84.70;96839.08;108700;1274;22590;-72
2024/03/19 02:39:49;;;;;;;23.30;17.40;;;;;;;0.60;84.87;96839.69;108642;1274;25374;-72
2024/03/19 02:42:20;;;;;;;24.90;17.80;;;;;;;0.58;84.59;96839.49;108649;1267;22523;-72
2024/03/19 02:44:52;;;;;;;24.20;17.40;;;;;;;0.58;84.56;96841.31;108698;1274;22545;-72
2024/03/19 02:47:22;;;;;;;24.10;17.20;;;;;;;0.58;85.01;96846.36;108722;1269;22510;-72
2024/03/19 02:49:55;;;;;;;21.70;16.40;;;;;;;0.58;84.74;96847.77;108644;1274;24281;-72
2024/03/19 02:52:25;;;;;;;20.40;15.40;;;;;;;0.55;84.47;96847.80;108612;1274;22519;-72
2024/03/19 02:54:56;;;;;;;21.80;16.50;;;;;;;0.53;84.64;96849.14;108622;1274;22529;-72
2024/03/19 02:57:28;;;;;;;24.00;16.90;;;;;;;0.52;84.92;96853.55;108629;1267;22535;-72
2024/03/19 02:59:58;;;;;;;22.60;15.90;;;;;;;0.52;84.73;96853.80;108605;1274;24238;-72
2024/03/19 03:02:29;;;;;;;21.10;16.30;;;;;;;0.53;84.95;96856.55;108661;1269;25622;-72
2024/03/19 03:05:02;;;;;;;20.50;15.60;;;;;;;0.53;85.02;96856.52;108671;1274;25383;-72
2024/03/19 03:07:32;;;;;;;19.50;14.30;;;;;;;0.54;84.97;96858.40;108661;1274;22542;-72
2024/03/19 03:10:03;;;;;;;18.60;15.20;;;;;;;0.52;84.62;96859.70;110275;1251;22505;-73
2024/03/19 03:12:34;;;;;;;17.90;13.70;;;;;;;0.51;84.56;96864.05;108303;1267;25427;-72
2024/03/19 03:15:09;;;;;;;18.70;13.90;;;;;;;0.51;84.81;96863.48;108485;1277;25381;-72
2024/03/19 03:17:39;;;;;;;19.80;14.60;;;;;;;0.51;85.03;96868.09;108423;1270;22552;-72
2024/03/19 03:20:12;;;;;;;18.70;14.30;;;;;;;0.51;84.85;96867.40;108490;1276;22544;-73
2024/03/19 03:22:42;;;;;;;20.40;14.70;;;;;;;0.50;85.02;96870.82;108463;1276;25978;-72
2024/03/19 03:25:15;;;;;;;18.30;13.20;;;;;;;0.51;84.70;96870.10;108460;1276;22532;-72
2024/03/19 03:27:46;;;;;;;19.30;14.40;;;;;;;0.52;84.91;96871.81;108530;1269;25373;-73
2024/03/19 03:30:16;;;;;;;16.70;13.00;;;;;;;0.50;84.80;96873.91;108460;1276;22533;-72
2024/03/19 03:32:47;;;;;;;18.30;13.90;;;;;;;0.48;84.65;96875.02;108421;1277;23822;-72
2024/03/19 03:35:21;;;;;;;17.00;11.80;;;;;;;0.47;84.48;96875.39;108494;1276;24266;-73
2024/03/19 03:37:52;;;;;;;15.50;11.80;;;;;;;0.43;84.48;96878.69;108453;1277;22670;-72
2024/03/19 03:40:24;;;;;;;16.00;11.20;;;;;;;0.40;84.32;96875.15;108492;1274;22539;-73
2024/03/19 03:42:54;;;;;;;15.80;12.70;;;;;;;0.39;84.39;96878.01;108526;1275;25338;-73
2024/03/19 03:45:25;;;;;;;14.60;11.90;;;;;;;0.40;84.77;96883.02;108537;1275;22533;-73
2024/03/19 03:47:56;;;;;;;16.50;11.30;;;;;;;0.42;84.94;96884.18;108505;1274;22648;-73
2024/03/19 03:50:27;;;;;;;14.40;10.60;;;;;;;0.43;84.83;96888.63;108571;1276;25302;-72
2024/03/19 03:52:57;;;;;;;13.50;9.80;;;;;;;0.42;84.98;96892.23;108407;1273;22538;-73
2024/03/19 03:55:28;;;;;;;13.40;9.60;;;;;;;0.43;84.68;96891.89;108484;1276;22515;-73
2024/03/19 03:57:58;;;;;;;16.30;11.70;;;;;;;0.45;84.83;96893.61;108453;1276;25381;-72
2024/03/19 04:00:29;;;;;;;15.20;11.60;;;;;;;0.47;84.89;96890.06;108458;1276;22530;-72
2024/03/19 04:03:00;;;;;;;15.10;11.30;;;;;;;0.52;84.97;96892.40;108490;1275;24228;-72
2024/03/19 04:05:30;;;;;;;18.90;13.70;;;;;;;0.54;84.93;96891.02;108470;1276;22530;-72
2024/03/19 04:08:01;;;;;;;18.10;13.00;;;;;;;0.56;84.92;96891.42;108419;1270;22536;-72
2024/03/19 04:10:31;;;;;;;18.70;13.60;;;;;;;0.57;85.18;96896.04;108393;1276;22527;-72
2024/03/19 04:13:02;;;;;;;17.20;12.70;;;;;;;0.53;84.68;96895.33;108383;1276;22546;-72
2024/03/19 04:15:32;;;;;;;17.00;12.50;;;;;;;0.50;84.59;96901.96;108428;1269;22526;-72
2024/03/19 04:18:03;;;;;;;18.00;13.40;;;;;;;0.51;84.82;96903.77;108465;1276;23428;-73
2024/03/19 04:20:33;;;;;;;18.40;13.60;;;;;;;0.52;84.85;96899.83;108414;1276;23230;-73
2024/03/19 04:23:04;;;;;;;17.60;13.80;;;;;;;0.55;85.16;96900.38;108497;1273;22562;-73
2024/03/19 04:25:34;;;;;;;20.00;14.80;;;;;;;0.58;85.21;96900.83;108492;1276;22532;-72
2024/03/19 04:28:07;;;;;;;18.20;13.30;;;;;;;0.56;84.91;96898.41;108518;1276;25248;-73
2024/03/19 04:30:41;;;;;;;19.00;13.80;;;;;;;0.53;84.95;96905.33;108481;1276;22536;-73
2024/03/19 04:33:11;;;;;;;21.30;16.40;;;;;;;0.52;85.26;96904.16;108498;1276;22535;-72
2024/03/19 04:35:41;;;;;;;25.00;17.70;;;;;;;0.50;85.11;96907.27;108483;1276;22562;-73
2024/03/19 04:38:15;;;;;;;22.80;16.80;;;;;;;0.47;84.95;96909.04;108507;1276;24252;-72
2024/03/19 04:40:46;;;;;;;24.30;15.90;;;;;;;0.37;84.83;96910.13;108510;1276;22512;-73
2024/03/19 04:43:16;;;;;;;25.70;17.80;;;;;;;0.30;84.74;96912.71;108414;1276;25392;-72
2024/03/19 04:45:46;;;;;;;22.60;17.00;;;;;;;0.25;85.17;96915.16;108416;1271;25433;-73
2024/03/19 04:48:17;;;;;;;25.30;18.30;;;;;;;0.24;85.28;96916.70;108438;1271;23826;-72
2024/03/19 04:50:47;;;;;;;22.50;17.20;;;;;;;0.23;85.61;96919.34;108412;1276;24270;-72
2024/03/19 04:53:18;;;;;;;26.30;17.30;;;;;;;0.18;85.53;96919.61;108427;1276;22562;-73
2024/03/19 04:55:48;;;;;;;25.30;18.00;;;;;;;0.14;85.79;96920.10;108456;1271;22540;-73
2024/03/19 04:58:19;;;;;;;26.50;19.00;;;;;;;0.11;85.49;96921.90;108426;1276;22530;-72
2024/03/19 05:00:50;;;;;;;25.70;18.40;;;;;;;0.12;86.13;96929.04;108406;1276;24540;-72
2024/03/19 05:03:20;;;;;;;22.50;16.90;;;;;;;0.14;86.18;96930.25;108389;1270;22538;-73
2024/03/19 05:05:52;;;;;;;22.60;16.30;;;;;;;0.19;86.20;96933.05;108341;1276;23039;-73
2024/03/19 05:08:22;;;;;;;23.10;16.90;;;;;;;0.25;86.55;96933.54;108416;1270;22533;-72
2024/03/19 05:10:53;;;;;;;26.20;18.10;;;;;;;0.34;86.56;96937.98;108377;1271;22539;-73
2024/03/19 05:13:27;;;;;;;23.60;16.40;;;;;;;0.40;86.71;96941.07;108415;1276;24281;-73
2024/03/19 05:15:58;;;;;;;27.20;19.50;;;;;;;0.43;86.47;96945.38;108407;1276;22622;-72
2024/03/19 05:18:28;;;;;;;24.70;17.70;;;;;;;0.39;86.08;96944.20;108400;1270;22655;-73
2024/03/19 05:20:59;;;;;;;23.00;16.30;;;;;;;0.35;86.08;96945.07;108388;1276;23323;-73
2024/03/19 05:23:30;;;;;;;22.80;16.80;;;;;;;0.35;86.47;96947.08;108402;1276;22638;-73
2024/03/19 05:26:03;;;;;;;22.50;16.10;;;;;;;0.37;86.56;96948.20;108446;1276;22680;-73
2024/03/19 05:28:37;;;;;;;23.10;16.30;;;;;;;0.38;86.39;96947.02;108407;1270;25509;-73
2024/03/19 05:31:22;;;;;;;19.50;14.00;;;;;;;0.35;86.45;96951.93;108359;1276;22519;-72
2024/03/19 05:33:54;;;;;;;20.90;15.50;;;;;;;0.31;86.34;96955.36;108436;1270;24347;-72
2024/03/19 05:36:26;;;;;;;23.80;17.90;;;;;;;0.33;86.66;96960.05;108389;1273;25360;-72
2024/03/19 05:38:57;;;;;;;23.20;16.80;;;;;;;0.32;86.50;96956.68;108458;1270;25240;-73
2024/03/19 05:41:28;;;;;;;20.60;14.60;;;;;;;0.32;86.86;96957.89;108386;1276;23294;-74
2024/03/19 05:43:58;;;;;;;23.00;16.70;;;;;;;0.32;86.78;96966.35;108483;1276;23192;-74
2024/03/19 05:46:29;;;;;;;24.00;17.10;;;;;;;0.32;86.96;96969.20;108549;1276;25273;-74
2024/03/19 05:49:04;;;;;;;24.70;18.60;;;;;;;0.31;86.64;96967.16;108552;1271;25325;-74
2024/03/19 05:51:35;;;;;;;23.50;17.00;;;;;;;0.31;86.89;96972.93;108419;1276;22523;-73
2024/03/19 05:54:05;;;;;;;23.50;15.80;;;;;;;0.32;86.97;96976.41;108373;1270;22544;-74
2024/03/19 05:56:36;;;;;;;22.30;17.10;;;;;;;0.35;86.94;96975.04;108414;1276;22570;-74
2024/03/19 05:59:07;;;;;;;24.60;18.30;;;;;;;0.41;87.28;96982.07;108408;1276;22544;-74
2024/03/19 06:01:38;;;;;;;24.80;17.40;;;;;;;0.47;87.40;96984.12;108441;1270;22539;-73
2024/03/19 06:04:09;;;;;;;23.30;16.50;;;;;;;0.55;87.65;96984.30;108493;1272;25404;-74
2024/03/19 06:06:39;;;;;;;21.00;15.60;;;;;;;0.59;87.29;96984.49;108372;1254;169358;-73
2024/03/19 06:09:11;;;;;;;18.20;14.20;;;;;;;0.62;87.46;96989.98;108491;1275;22744;-73
2024/03/19 06:11:41;;;;;;;20.10;15.00;;;;;;;0.67;86.84;96991.39;108380;1276;22536;-73
2024/03/19 06:14:12;;;;;;;19.40;14.60;;;;;;;0.73;87.36;96990.48;108396;1276;22685;-73
2024/03/19 06:16:42;;;;;;;20.00;14.50;;;;;;;0.81;87.17;96993.15;108392;1274;22529;-74
2024/03/19 06:19:13;;;;;;;20.30;15.70;;;;;;;0.86;87.20;96994.55;108382;1276;22600;-74
2024/03/19 06:21:44;;;;;;;18.00;13.10;;;;;;;0.91;87.15;96998.78;108394;1274;22525;-74
2024/03/19 06:24:15;;;;;;;18.10;13.70;;;;;;;0.94;87.01;96999.49;108477;1276;22546;-74
2024/03/19 06:26:46;;;;;;;19.30;14.70;;;;;;;0.93;86.69;97000.22;108520;1270;22536;-74
2024/03/19 06:29:17;;;;;;;20.60;15.20;;;;;;;0.90;86.80;96999.76;108550;1276;22537;-74
2024/03/19 06:31:48;;;;;;;21.10;16.00;;;;;;;0.96;86.79;97007.91;108476;1276;22539;-73
2024/03/19 06:34:19;;;;;;;24.30;16.20;;;;;;;1.02;87.05;97007.90;108539;1276;24266;-73
2024/03/19 06:36:51;;;;;;;18.80;14.10;;;;;;;1.07;87.18;97007.86;108509;1276;22525;-74
2024/03/19 06:39:23;;;;;;;18.00;14.20;;;;;;;1.18;87.23;97011.76;108492;1276;22701;-75
2024/03/19 06:41:54;;;;;;;19.00;14.30;;;;;;;1.25;86.57;97015.41;108355;1270;22590;-74
2024/03/19 06:44:25;;;;;;;18.60;14.00;;;;;;;1.25;86.74;97017.24;108413;1276;22522;-75
2024/03/19 06:46:56;;;;;;;19.80;14.60;;;;;;;1.25;86.81;97021.80;108440;1276;25346;-74
2024/03/19 06:49:27;;;;;;;22.10;16.20;;;;;;;1.28;86.81;97024.89;108403;1276;22577;-74
2024/03/19 06:51:58;;;;;;;21.60;16.80;;;;;;;1.29;86.86;97026.58;108416;1276;22582;-74
2024/03/19 06:54:29;;;;;;;21.50;15.00;;;;;;;1.33;86.90;97027.15;108467;1276;22644;-74
2024/03/19 06:56:59;;;;;;;19.20;14.60;;;;;;;1.38;86.87;97023.73;108443;1276;22544;-74
2024/03/19 06:59:30;;;;;;;17.70;14.10;;;;;;;1.45;86.94;97027.37;108513;1269;22570;-74
2024/03/19 07:02:02;;;;;;;20.80;15.60;;;;;;;1.52;86.77;97027.15;108426;1276;22572;-74
2024/03/19 07:04:35;;;;;;;20.40;14.60;;;;;;;1.53;86.72;97030.52;108538;1274;22657;-74
2024/03/19 07:07:06;;;;;;;20.60;16.50;;;;;;;1.57;86.75;97032.52;108521;1276;22530;-74
2024/03/19 07:09:36;;;;;;;21.00;16.40;;;;;;;1.65;86.82;97036.16;108511;1276;22526;-74
2024/03/19 07:12:08;;;;;;;20.60;15.00;;;;;;;1.67;86.59;97037.67;108381;1276;22532;-74
2024/03/19 07:14:39;;;;;;;18.50;14.50;;;;;;;1.66;86.38;97039.45;108467;1276;22511;-74
2024/03/19 07:17:10;;;;;;;22.40;17.20;;;;;;;1.70;86.61;97040.52;108477;1272;22641;-74
2024/03/19 07:19:43;;;;;;;20.80;15.70;;;;;;;1.77;86.80;97039.34;108504;1276;22529;-74
2024/03/19 07:22:13;;;;;;;20.40;15.80;;;;;;;1.85;86.83;97039.45;108458;1276;22546;-74
2024/03/19 07:24:44;;;;;;;19.20;13.70;;;;;;;1.97;86.69;97044.88;108478;1270;22533;-74
2024/03/19 07:27:16;;;;;;;17.80;13.30;;;;;;;2.06;86.30;97049.95;108474;1276;22642;-74
2024/03/19 07:29:47;;;;;;;18.80;13.20;;;;;;;2.07;85.90;97055.41;108487;1273;24357;-74
2024/03/19 07:32:17;;;;;;;18.50;13.60;;;;;;;2.08;85.79;97058.05;108377;1270;23041;-74
2024/03/19 07:34:48;;;;;;;18.30;14.60;;;;;;;2.06;85.53;97062.86;108413;1270;22527;-74
2024/03/19 07:37:18;;;;;;;17.50;13.70;;;;;;;2.12;85.56;97063.14;108403;1276;22519;-74
2024/03/19 07:39:54;;;;;;;17.10;13.90;;;;;;;2.32;85.79;97066.24;108381;1276;22532;-74
2024/03/19 07:42:25;;;;;;;17.90;13.90;;;;;;;2.58;85.75;97068.46;108377;1272;22766;-74
2024/03/19 07:44:56;;;;;;;16.50;13.20;;;;;;;2.73;85.31;97071.38;108370;1270;24283;-74
2024/03/19 07:47:27;;;;;;;15.30;11.90;;;;;;;2.75;84.99;97073.98;108389;1276;25402;-74
2024/03/19 07:49:58;;;;;;;15.70;12.40;;;;;;;2.76;84.65;97075.78;108401;1276;22533;-74
2024/03/19 07:52:29;;;;;;;17.40;13.30;;;;;;;2.88;84.73;97077.46;108424;1273;22567;-74
2024/03/19 07:54:59;;;;;;;17.10;12.80;;;;;;;3.07;84.65;97074.89;108509;1269;22527;-75
2024/03/19 07:57:31;;;;;;;16.90;13.00;;;;;;;3.15;84.45;97078.60;108490;1269;22691;-74
2024/03/19 08:00:09;;;;;;;16.00;12.70;;;;;;;3.14;83.93;97080.95;108478;1276;23816;-74
2024/03/19 08:02:40;;;;;;;17.90;13.10;;;;;;;3.24;84.10;97080.17;108470;1276;25168;-74
2024/03/19 08:05:13;;;;;;;14.20;11.80;;;;;;;3.54;83.92;97081.30;108493;1269;22572;-74
2024/03/19 08:07:44;;;;;;;14.20;11.40;;;;;;;3.70;83.03;97086.59;108494;1276;22521;-74
2024/03/19 08:10:15;;;;;;;15.10;11.00;;;;;;;3.75;82.63;97085.77;108457;1276;22523;-75
2024/03/19 08:12:48;;;;;;;15.70;12.80;;;;;;;3.70;81.84;97086.05;108424;1276;22533;-74
2024/03/19 08:15:19;;;;;;;16.50;13.10;;;;;;;3.63;81.99;97085.20;108494;1269;24223;-74
2024/03/19 08:17:49;;;;;;;15.70;12.00;;;;;;;3.66;82.17;97091.78;108465;1273;24827;-74
2024/03/19 08:20:20;;;;;;;17.50;12.30;;;;;;;3.83;82.04;97095.59;108497;1273;25510;-74
2024/03/19 08:22:53;;;;;;;15.20;12.50;;;;;;;3.91;81.58;97095.67;108481;1276;22529;-74
2024/03/19 08:25:24;;;;;;;15.90;10.80;;;;;;;4.01;81.30;97095.47;108520;1276;22544;-74
2024/03/19 08:27:54;;;;;;;15.10;11.70;;;;;;;4.00;80.79;97094.18;108484;1276;24294;-75
2024/03/19 08:30:26;;;;;;;14.40;11.70;;;;;;;3.84;80.58;97096.62;108484;1269;22564;-75
2024/03/19 08:32:58;;;;;;;14.90;11.20;;;;;;;3.73;80.53;97099.15;108500;1276;23175;-74
2024/03/19 08:35:28;;;;;;;13.40;10.40;;;;;;;3.96;81.58;97100.11;108474;1270;24281;-74
2024/03/19 08:38:03;;;;;;;14.20;10.80;;;;;;;5.28;81.28;97095.15;108466;1255;24242;-75
2024/03/19 08:40:36;;;;;;;12.60;9.30;;;;;;;6.34;81.88;97090.88;108481;1269;22535;-74
2024/03/19 08:43:06;;;;;;;12.40;10.20;;;;;;;8.35;80.93;97086.27;108450;1276;22540;-74
2024/03/19 08:45:39;;;;;;;10.00;8.30;;;;;;;9.10;77.24;97082.73;108480;1276;24229;-74
2024/03/19 08:48:10;;;;;;;10.60;8.50;;;;;;;9.83;73.22;97084.55;108501;1276;22800;-74
2024/03/19 08:50:41;;;;;;;12.40;9.40;;;;;;;9.06;68.90;97083.98;108501;1276;22626;-74
2024/03/19 08:53:11;;;;;;;11.10;8.90;;;;;;;8.01;68.94;97084.44;108496;1276;22564;-74
2024/03/19 08:55:43;;;;;;;12.30;9.50;;;;;;;7.28;69.37;97082.33;108489;1276;22553;-74
2024/03/19 08:58:13;;;;;;;10.20;7.80;;;;;;;7.47;70.45;97084.45;108487;1276;25426;-74
2024/03/19 09:00:45;;;;;;;10.30;8.70;;;;;;;7.06;68.99;97089.52;108472;1268;22535;-74
2024/03/19 09:03:15;;;;;;;9.90;7.50;;;;;;;6.55;68.43;97090.75;108522;1276;22578;-73
2024/03/19 09:05:46;;;;;;;9.20;7.00;;;;;;;6.09;68.57;97094.65;108483;1276;24276;-74
2024/03/19 09:08:17;;;;;;;8.40;6.90;;;;;;;6.25;70.43;97094.33;108377;1277;22529;-74
2024/03/19 09:10:48;;;;;;;9.60;7.50;;;;;;;6.62;70.49;97098.92;108336;1270;22796;-73
2024/03/19 09:13:19;;;;;;;10.00;7.20;;;;;;;6.66;69.58;97096.14;108355;1271;25362;-74
2024/03/19 09:15:50;;;;;;;9.30;6.80;;;;;;;6.62;69.16;97099.85;108327;1278;22663;-74
2024/03/19 09:18:20;;;;;;;8.90;6.80;;;;;;;6.69;68.57;97098.49;108360;1272;22576;-74
2024/03/19 09:20:51;;;;;;;9.70;7.00;;;;;;;6.61;67.36;97102.12;108316;1278;22945;-74
2024/03/19 09:23:23;;;;;;;10.00;6.70;;;;;;;6.29;67.01;97102.94;108358;1271;22536;-74
2024/03/19 09:25:54;;;;;;;10.20;7.70;;;;;;;6.18;67.03;97099.91;108311;1278;22547;-74
2024/03/19 09:28:25;;;;;;;9.40;7.10;;;;;;;5.89;66.30;97105.32;108348;1272;22525;-74
2024/03/19 09:30:55;;;;;;;12.50;8.40;;;;;;;5.66;66.86;97100.37;108308;1278;22724;-74
2024/03/19 09:33:27;;;;;;;11.70;9.00;;;;;;;5.41;66.77;97106.91;108399;1277;22586;-74
2024/03/19 09:35:57;;;;;;;11.90;8.40;;;;;;;4.95;66.72;97112.31;108377;1277;25374;-74
2024/03/19 09:38:28;;;;;;;10.40;7.80;;;;;;;4.78;67.53;97113.58;108386;1277;22666;-74
2024/03/19 09:41:03;;;;;;;9.80;7.20;;;;;;;4.70;67.64;97121.59;108362;1277;22570;-73
2024/03/19 09:43:36;;;;;;;10.30;8.10;;;;;;;4.65;67.69;97122.69;108422;1277;22903;-74
2024/03/19 09:46:07;;;;;;;9.10;7.60;;;;;;;4.67;67.83;97122.36;108382;1270;22770;-74
2024/03/19 09:48:39;;;;;;;8.30;6.50;;;;;;;4.88;68.20;97122.21;108386;1277;22538;-74
2024/03/19 09:51:15;;;;;;;8.20;6.60;;;;;;;5.03;67.49;97119.91;108351;1271;22657;-74
2024/03/19 09:53:46;;;;;;;10.30;7.20;;;;;;;5.19;67.53;97114.61;108164;1270;22564;-74
2024/03/19 09:56:19;;;;;;;9.70;8.00;;;;;;;5.34;67.25;97111.83;108256;1269;22704;-74
2024/03/19 09:58:52;;;;;;;10.90;7.10;;;;;;;5.28;66.86;97113.15;108398;1270;22518;-74
2024/03/19 10:01:23;;;;;;;10.00;7.00;;;;;;;5.29;67.32;97115.72;108355;1273;22529;-74
2024/03/19 10:03:55;;;;;;;8.10;5.90;;;;;;;5.29;67.05;97115.88;108215;1271;22533;-74
2024/03/19 10:06:25;;;;;;;8.30;6.30;;;;;;;5.34;67.01;97116.36;108396;1277;22551;-74
2024/03/19 10:08:56;;;;;;;8.10;6.10;;;;;;;5.46;66.68;97114.16;108347;1277;22561;-74
2024/03/19 10:11:27;;;;;;;10.20;6.50;;;;;;;5.40;66.23;97111.75;108288;1277;25350;-74
2024/03/19 10:14:00;;;;;;;8.20;6.20;;;;;;;5.51;67.00;97110.18;108350;1270;22616;-74
2024/03/19 10:16:35;;;;;;;7.80;6.30;;;;;;;5.85;68.02;97112.73;108361;1277;22522;-74
2024/03/19 10:19:05;;;;;;;8.60;6.30;;;;;;;6.19;66.85;97108.55;108295;1270;22656;-74
2024/03/19 10:21:36;;;;;;;7.70;6.00;;;;;;;6.36;65.98;97110.88;108287;1277;22528;-73
2024/03/19 10:24:15;;;;;;;8.80;6.80;;;;;;;6.20;64.91;97112.89;108316;1277;24623;-74
2024/03/19 10:26:48;;;;;;;8.20;5.80;;;;;;;5.96;64.62;97116.76;108361;1277;22565;-74
2024/03/19 10:29:19;;;;;;;7.70;6.40;;;;;;;5.78;65.08;97118.58;108397;1277;22527;-73
2024/03/19 10:31:50;;;;;;;8.00;5.80;;;;;;;5.70;64.80;97120.00;108352;1277;22550;-74
2024/03/19 10:34:23;;;;;;;8.80;6.40;;;;;;;5.51;64.26;97125.20;108361;1277;22523;-74
2024/03/19 10:36:54;;;;;;;9.60;6.50;;;;;;;5.22;64.08;97122.25;108467;1277;22565;-73
2024/03/19 10:39:26;;;;;;;8.30;6.20;;;;;;;5.08;64.42;97125.02;108363;1277;22619;-74
2024/03/19 10:41:58;;;;;;;9.30;7.00;;;;;;;5.19;65.11;97120.72;108351;1271;23150;-74
2024/03/19 10:44:33;;;;;;;9.60;6.60;;;;;;;5.47;65.64;97115.77;108375;1257;24267;-74
2024/03/19 10:47:05;;;;;;;8.00;6.00;;;;;;;5.82;66.01;97114.98;108375;1277;22603;-74
2024/03/19 10:49:35;;;;;;;9.10;6.20;;;;;;;6.06;65.88;97116.06;108386;1277;22529;-74
2024/03/19 10:52:14;;;;;;;8.10;5.90;;;;;;;6.12;64.77;97112.02;108344;1271;22550;-74
2024/03/19 10:54:47;;;;;;;7.90;5.70;;;;;;;5.94;63.48;97115.46;108447;1277;22655;-74
2024/03/19 10:57:20;;;;;;;9.60;6.20;;;;;;;5.75;62.88;97115.11;108387;1277;24226;-73
2024/03/19 10:59:51;;;;;;;7.80;5.90;;;;;;;5.68;63.30;97112.08;108374;1277;22615;-74
2024/03/19 11:02:21;;;;;;;10.10;7.10;;;;;;;5.74;63.61;97115.45;108359;1271;22532;-73
2024/03/19 11:04:58;;;;;;;8.10;6.20;;;;;;;5.55;62.54;97112.93;108339;1275;22642;-73
2024/03/19 11:07:30;;;;;;;8.00;5.80;;;;;;;5.19;62.40;97120.61;108400;1277;25252;-74
2024/03/19 11:10:05;;;;;;;8.70;5.90;;;;;;;5.06;62.73;97121.55;108384;1271;22540;-73
2024/03/19 11:12:37;;;;;;;8.00;5.80;;;;;;;5.13;63.49;97122.86;108314;1270;22592;-73
2024/03/19 11:15:17;;;;;;;8.10;5.10;;;;;;;5.13;63.17;97125.58;108389;1271;22559;-73
2024/03/19 11:17:48;;;;;;;8.40;5.20;;;;;;;5.07;62.80;97128.71;108347;1270;22729;-74
2024/03/19 11:20:18;;;;;;;8.10;4.90;;;;;;;4.98;62.43;97124.27;108355;1277;24270;-74
2024/03/19 11:22:51;;;;;;;6.50;4.70;;;;;;;4.88;62.37;97122.98;108255;1273;23878;-74
2024/03/19 11:25:23;;;;;;;7.90;5.30;;;;;;;5.06;63.00;97118.30;108366;1270;27703;-74
2024/03/19 11:27:56;;;;;;;7.50;5.00;;;;;;;5.33;62.96;97117.86;108283;1270;22675;-74
2024/03/19 11:30:27;;;;;;;8.50;5.50;;;;;;;5.63;62.48;97114.35;108318;1277;22537;-74
2024/03/19 11:33:00;;;;;;;12.10;4.90;;;;;;;5.78;62.00;97114.74;108330;1277;22768;-74
2024/03/19 11:35:31;;;;;;;8.20;5.30;;;;;;;5.73;60.60;97112.54;108452;1271;22590;-74
2024/03/19 11:38:04;;;;;;;5.20;3.40;;;;;;;5.49;59.55;97109.98;108349;1273;22593;-74